| time (UTC) | temp F | wind direction | speed MPH | gust MPH | rain 1hr in | rain 24hr in | rain mn in | humidity % | barometer mb |
| 20260502194539 | 61 | 172 | 5.0 | 13.0 | 0.00 | 0.03 | 0.00 | 31 | 1025.5 |
| 20260502194024 | 62 | 213 | 3.0 | 8.0 | 0.00 | 0.03 | 0.00 | 34 | 1025.5 |
| 20260502193525 | 62 | 178 | 3.0 | 8.0 | 0.00 | 0.03 | 0.00 | 36 | 1025.5 |
| 20260502193044 | 62 | 175 | 2.0 | 7.0 | 0.00 | 0.03 | 0.00 | 34 | 1025.6 |
| 20260502192524 | 61 | 115 | 3.0 | 6.0 | 0.00 | 0.03 | 0.00 | 34 | 1025.6 |
| 20260502192024 | 61 | 178 | 2.0 | 7.0 | 0.00 | 0.03 | 0.00 | 36 | 1025.8 |
| 20260502191543 | 61 | 232 | 1.0 | 7.0 | 0.00 | 0.03 | 0.00 | 33 | 1025.8 |
| 20260502191023 | 61 | 282 | 3.0 | 9.0 | 0.00 | 0.03 | 0.00 | 35 | 1025.8 |
| 20260502190525 | 60 | 283 | 3.0 | 9.0 | 0.00 | 0.03 | 0.00 | 37 | 1026.0 |
| 20260502190047 | 59 | 236 | 2.0 | 11.0 | 0.00 | 0.03 | 0.00 | 38 | 1026.0 |
| 20260502185523 | 59 | 181 | 5.0 | 11.0 | 0.00 | 0.03 | 0.00 | 36 | 1026.1 |
| 20260502185025 | 58 | 196 | 1.0 | 11.0 | 0.00 | 0.03 | 0.00 | 40 | 1026.2 |
| 20260502184539 | 58 | 165 | 5.0 | 11.0 | 0.00 | 0.03 | 0.00 | 37 | 1026.3 |
| 20260502184023 | 58 | 175 | 3.0 | 9.0 | 0.00 | 0.03 | 0.00 | 40 | 1026.3 |
| 20260502183524 | 58 | 199 | 2.0 | 9.0 | 0.00 | 0.03 | 0.00 | 40 | 1026.3 |
| 20260502183040 | 58 | 167 | 4.0 | 9.0 | 0.00 | 0.03 | 0.00 | 39 | 1026.4 |
| 20260502182526 | 57 | 188 | 4.0 | 12.0 | 0.00 | 0.03 | 0.00 | 41 | 1026.4 |
| 20260502182028 | 57 | 186 | 3.0 | 12.0 | 0.00 | 0.03 | 0.00 | 41 | 1026.4 |
| 20260502181541 | 57 | 190 | 6.0 | 11.0 | 0.00 | 0.03 | 0.00 | 41 | 1026.5 |
| 20260502181024 | 57 | 244 | 4.0 | 14.0 | 0.00 | 0.03 | 0.00 | 45 | 1026.5 |
| 20260502180523 | 56 | 203 | 4.0 | 16.0 | 0.00 | 0.03 | 0.00 | 43 | 1026.5 |
| 20260502164024 | 52 | 176 | 7.0 | 15.0 | 0.00 | 0.03 | 0.00 | 56 | 1026.6 |
| 20260502163525 | 52 | 180 | 9.0 | 14.0 | 0.00 | 0.03 | 0.00 | 54 | 1026.5 |
| 20260502163046 | 52 | 165 | 6.0 | 14.0 | 0.00 | 0.03 | 0.00 | 57 | 1026.5 |
| 20260502162524 | 51 | 146 | 4.0 | 10.0 | 0.00 | 0.03 | 0.00 | 58 | 1026.6 |
| 20260502162025 | 51 | 209 | 5.0 | 12.0 | 0.00 | 0.03 | 0.00 | 56 | 1026.6 |
| 20260502161535 | 50 | 196 | 5.0 | 12.0 | 0.00 | 0.03 | 0.00 | 61 | 1026.6 |
| 20260502161024 | 50 | 166 | 6.0 | 11.0 | 0.00 | 0.03 | 0.00 | 58 | 1026.6 |
| 20260502160525 | 50 | 205 | 5.0 | 11.0 | 0.00 | 0.03 | 0.00 | 59 | 1026.5 |
| 20260502152022 | 49 | 240 | 4.0 | 9.0 | 0.00 | 0.03 | 0.00 | 61 | 1026.6 |
| 20260502151559 | 49 | 194 | 3.0 | 8.0 | 0.00 | 0.03 | 0.00 | 62 | 1026.7 |
| 20260502151024 | 48 | 223 | 3.0 | 8.0 | 0.00 | 0.03 | 0.00 | 60 | 1026.7 |
| 20260502150522 | 48 | 208 | 3.0 | 6.0 | 0.00 | 0.03 | 0.00 | 61 | 1026.7 |
| 20260502130524 | 36 | 290 | 1.0 | 7.0 | 0.00 | 0.03 | 0.00 | 81 | 1026.1 |
| 20260502123522 | 33 | 287 | 0.0 | 3.0 | 0.00 | 0.03 | 0.00 | 85 | 1025.8 |
| 20260502123040 | 34 | 0 | 0.0 | 3.0 | 0.00 | 0.03 | 0.00 | 86 | 1025.8 |
| 20260502122521 | 34 | 0 | 0.0 | 4.0 | 0.00 | 0.03 | 0.00 | 86 | 1025.7 |
| 20260502122022 | 34 | 288 | 1.0 | 4.0 | 0.00 | 0.03 | 0.00 | 86 | 1025.6 |
| 20260502121538 | 34 | 284 | 1.0 | 4.0 | 0.00 | 0.03 | 0.00 | 87 | 1025.7 |
| 20260502121024 | 34 | 273 | 1.0 | 4.0 | 0.00 | 0.03 | 0.00 | 87 | 1025.7 |
| 20260502120522 | 34 | 271 | 1.0 | 6.0 | 0.00 | 0.03 | 0.00 | 88 | 1025.7 |
| 20260502115524 | 34 | 279 | 1.0 | 3.0 | 0.00 | 0.04 | 0.00 | 90 | 1025.6 |
| 20260502115024 | 35 | 269 | 0.0 | 3.0 | 0.00 | 0.04 | 0.00 | 90 | 1025.7 |
| 20260502114539 | 35 | 265 | 0.0 | 3.0 | 0.00 | 0.04 | 0.00 | 90 | 1025.8 |
| 20260502114024 | 35 | 0 | 0.0 | 3.0 | 0.00 | 0.04 | 0.00 | 90 | 1025.9 |
| 20260502113523 | 35 | 0 | 0.0 | 2.0 | 0.00 | 0.04 | 0.00 | 89 | 1025.9 |
| 20260502113049 | 35 | 0 | 0.0 | 2.0 | 0.00 | 0.04 | 0.00 | 89 | 1026.0 |
| 20260502112525 | 35 | 266 | 0.0 | 2.0 | 0.00 | 0.04 | 0.00 | 89 | 1026.1 |
| 20260502112024 | 35 | 0 | 0.0 | 2.0 | 0.00 | 0.04 | 0.00 | 89 | 1026.1 |
| 20260502111535 | 36 | 0 | 0.0 | 3.0 | 0.00 | 0.04 | 0.00 | 89 | 1026.1 |
| 20260502111023 | 36 | 266 | 0.0 | 3.0 | 0.00 | 0.04 | 0.00 | 90 | 1026.1 |
| 20260502110524 | 36 | 266 | 0.0 | 3.0 | 0.00 | 0.04 | 0.00 | 90 | 1026.0 |
| 20260502110041 | 36 | 0 | 0.0 | 4.0 | 0.00 | 0.04 | 0.00 | 91 | 1026.1 |
| 20260502105528 | 36 | 0 | 1.0 | 4.0 | 0.00 | 0.05 | 0.00 | 91 | 1026.0 |
| 20260502105024 | 35 | 0 | 1.0 | 4.0 | 0.00 | 0.05 | 0.00 | 91 | 1026.0 |
| 20260502104543 | 35 | 0 | 0.0 | 3.0 | 0.00 | 0.05 | 0.00 | 90 | 1025.8 |
| 20260502104025 | 35 | 0 | 0.0 | 2.0 | 0.00 | 0.05 | 0.00 | 90 | 1025.9 |
| 20260502103524 | 35 | 49 | 0.0 | 2.0 | 0.00 | 0.05 | 0.00 | 90 | 1025.9 |
| 20260502103039 | 35 | 0 | 0.0 | 3.0 | 0.00 | 0.05 | 0.00 | 89 | 1025.9 |
| 20260502102524 | 35 | 0 | 0.0 | 3.0 | 0.00 | 0.05 | 0.00 | 89 | 1025.7 |
| 20260502102025 | 35 | 0 | 0.0 | 1.0 | 0.00 | 0.05 | 0.00 | 88 | 1025.7 |
| 20260502101548 | 36 | 0 | 0.0 | 2.0 | 0.00 | 0.05 | 0.00 | 88 | 1025.8 |
| 20260502101023 | 36 | 0 | 0.0 | 2.0 | 0.00 | 0.05 | 0.00 | 88 | 1025.7 |
| 20260502100522 | 36 | 0 | 0.0 | 2.0 | 0.00 | 0.05 | 0.00 | 88 | 1025.6 |
| 20260502091021 | 38 | 0 | 0.0 | 0.0 | 0.00 | 0.06 | 0.00 | 86 | 1025.4 |
| 20260502090524 | 38 | 0 | 0.0 | 2.0 | 0.00 | 0.06 | 0.00 | 86 | 1025.4 |
| 20260502090109 | 38 | 0 | 0.0 | 2.0 | 0.00 | 0.06 | 0.00 | 86 | 1025.4 |
| 20260502071027 | 38 | 22 | 2.0 | 7.0 | 0.00 | 0.15 | 0.00 | 84 | 1026.1 |
| 20260502070526 | 38 | 44 | 3.0 | 11.0 | 0.00 | 0.15 | 0.00 | 85 | 1026.1 |
| 20260502070057 | 38 | 50 | 3.0 | 11.0 | 0.00 | 0.15 | 0.00 | 85 | 1026.0 |
| 20260502065526 | 38 | 32 | 4.0 | 8.0 | 0.00 | 0.16 | 0.00 | 85 | 1026.0 |
| 20260502065027 | 38 | 46 | 2.0 | 5.0 | 0.00 | 0.16 | 0.00 | 85 | 1026.0 |
| 20260502064555 | 38 | 44 | 2.0 | 6.0 | 0.00 | 0.16 | 0.00 | 85 | 1026.0 |
| 20260502064028 | 38 | 19 | 2.0 | 6.0 | 0.00 | 0.16 | 0.00 | 85 | 1025.9 |
| 20260502063525 | 38 | 40 | 2.0 | 5.0 | 0.00 | 0.16 | 0.00 | 85 | 1026.0 |
| 20260502063048 | 38 | 18 | 2.0 | 5.0 | 0.00 | 0.16 | 0.00 | 86 | 1026.0 |
| 20260502062525 | 38 | 347 | 2.0 | 6.0 | 0.00 | 0.16 | 0.00 | 86 | 1025.8 |
| 20260502062026 | 38 | 347 | 2.0 | 7.0 | 0.00 | 0.16 | 0.00 | 86 | 1025.9 |
| 20260502061543 | 38 | 37 | 2.0 | 7.0 | 0.00 | 0.16 | 0.00 | 86 | 1025.9 |
| 20260502061027 | 38 | 65 | 3.0 | 9.0 | 0.00 | 0.16 | 0.00 | 86 | 1025.7 |
| 20260502060524 | 38 | 40 | 4.0 | 9.0 | 0.00 | 0.16 | 0.00 | 86 | 1025.6 |
| 20260502060041 | 38 | 49 | 4.0 | 9.0 | 0.00 | 0.16 | 0.00 | 86 | 1025.7 |
| 20260502055525 | 38 | 46 | 2.0 | 8.0 | 0.00 | 0.16 | 0.16 | 87 | 1025.6 |
| 20260502055024 | 38 | 55 | 2.0 | 8.0 | 0.00 | 0.16 | 0.16 | 87 | 1025.6 |
| 20260502054541 | 38 | 63 | 3.0 | 8.0 | 0.00 | 0.16 | 0.16 | 87 | 1025.6 |
| 20260502054025 | 38 | 59 | 1.0 | 5.0 | 0.00 | 0.16 | 0.16 | 87 | 1025.6 |
| 20260502053523 | 38 | 59 | 1.0 | 4.0 | 0.00 | 0.16 | 0.16 | 87 | 1025.6 |
| 20260502053038 | 38 | 0 | 1.0 | 4.0 | 0.00 | 0.16 | 0.16 | 87 | 1025.4 |
| 20260502052522 | 38 | 40 | 1.0 | 4.0 | 0.00 | 0.16 | 0.16 | 87 | 1025.3 |
| 20260502052023 | 38 | 38 | 1.0 | 3.0 | 0.00 | 0.16 | 0.16 | 87 | 1025.3 |
| 20260502051540 | 38 | 0 | 0.0 | 4.0 | 0.00 | 0.16 | 0.16 | 87 | 1025.3 |
| 20260502051027 | 37 | 38 | 1.0 | 4.0 | 0.00 | 0.16 | 0.16 | 87 | 1025.5 |
| 20260502050526 | 37 | 37 | 2.0 | 5.0 | 0.00 | 0.16 | 0.16 | 87 | 1025.3 |
| 20260502050040 | 37 | 36 | 2.0 | 5.0 | 0.00 | 0.16 | 0.16 | 88 | 1025.2 |
| 20260502045524 | 37 | 36 | 1.0 | 4.0 | 0.00 | 0.16 | 0.16 | 88 | 1024.9 |
| 20260502045024 | 37 | 0 | 2.0 | 4.0 | 0.00 | 0.16 | 0.16 | 88 | 1024.9 |
| 20260502044535 | 37 | 37 | 2.0 | 4.0 | 0.00 | 0.16 | 0.16 | 88 | 1024.9 |
| 20260502044023 | 37 | 45 | 1.0 | 3.0 | 0.00 | 0.16 | 0.16 | 88 | 1024.9 |
| 20260502043523 | 37 | 0 | 0.0 | 1.0 | 0.00 | 0.16 | 0.16 | 87 | 1024.8 |
| 20260502043034 | 37 | 0 | 0.0 | 1.0 | 0.00 | 0.16 | 0.16 | 86 | 1024.7 |
| 20260502042523 | 37 | 0 | 0.0 | 2.0 | 0.00 | 0.16 | 0.16 | 87 | 1024.5 |
| 20260502042028 | 37 | 0 | 0.0 | 2.0 | 0.00 | 0.16 | 0.16 | 86 | 1024.5 |
| 20260502041553 | 37 | 0 | 0.0 | 3.0 | 0.00 | 0.16 | 0.16 | 86 | 1024.6 |
| 20260502041022 | 37 | 0 | 1.0 | 6.0 | 0.00 | 0.16 | 0.16 | 86 | 1024.8 |
| 20260502040523 | 38 | 51 | 1.0 | 6.0 | 0.00 | 0.16 | 0.16 | 86 | 1024.7 |
| 20260502040042 | 38 | 5 | 0.0 | 5.0 | 0.00 | 0.16 | 0.16 | 85 | 1024.7 |
| 20260502035523 | 38 | 360 | 1.0 | 6.0 | 0.00 | 0.16 | 0.16 | 85 | 1024.8 |
| 20260502035023 | 38 | 0 | 3.0 | 8.0 | 0.00 | 0.16 | 0.16 | 85 | 1024.7 |
| 20260502034536 | 38 | 351 | 3.0 | 8.0 | 0.00 | 0.16 | 0.16 | 85 | 1024.7 |
| 20260502034023 | 38 | 352 | 4.0 | 9.0 | 0.00 | 0.16 | 0.16 | 85 | 1024.6 |
| 20260502033523 | 38 | 51 | 4.0 | 9.0 | 0.00 | 0.16 | 0.16 | 85 | 1024.5 |
| 20260502033036 | 38 | 26 | 4.0 | 9.0 | 0.00 | 0.16 | 0.16 | 85 | 1024.3 |
| 20260502032523 | 38 | 39 | 4.0 | 8.0 | 0.00 | 0.16 | 0.16 | 85 | 1024.3 |
| 20260502032022 | 38 | 11 | 3.0 | 8.0 | 0.00 | 0.16 | 0.16 | 85 | 1024.2 |
| 20260502031540 | 38 | 15 | 3.0 | 9.0 | 0.00 | 0.16 | 0.16 | 85 | 1024.2 |
| 20260502031024 | 38 | 351 | 4.0 | 9.0 | 0.00 | 0.16 | 0.16 | 85 | 1024.2 |
| 20260502030522 | 38 | 57 | 3.0 | 8.0 | 0.00 | 0.16 | 0.16 | 86 | 1024.1 |
| 20260502030042 | 38 | 17 | 3.0 | 9.0 | 0.00 | 0.16 | 0.16 | 86 | 1024.0 |
| 20260502025523 | 38 | 351 | 4.0 | 10.0 | 0.00 | 0.16 | 0.16 | 86 | 1023.9 |
| 20260502025023 | 38 | 36 | 4.0 | 10.0 | 0.00 | 0.16 | 0.16 | 86 | 1023.8 |
| 20260502024536 | 38 | 71 | 3.0 | 9.0 | 0.00 | 0.16 | 0.16 | 86 | 1023.8 |
| 20260502024021 | 38 | 24 | 4.0 | 9.0 | 0.00 | 0.16 | 0.16 | 85 | 1023.6 |
| 20260502023523 | 38 | 49 | 3.0 | 9.0 | 0.00 | 0.16 | 0.16 | 85 | 1023.5 |
| 20260502023051 | 39 | 47 | 4.0 | 9.0 | 0.00 | 0.16 | 0.16 | 85 | 1023.4 |
| 20260502022523 | 39 | 24 | 2.0 | 8.0 | 0.00 | 0.16 | 0.16 | 85 | 1023.4 |
| 20260502022023 | 39 | 30 | 3.0 | 10.0 | 0.00 | 0.16 | 0.16 | 84 | 1023.2 |
| 20260502021541 | 39 | 52 | 4.0 | 11.0 | 0.00 | 0.16 | 0.16 | 84 | 1023.2 |
| 20260502021024 | 39 | 5 | 6.0 | 11.0 | 0.00 | 0.16 | 0.16 | 84 | 1023.1 |
| 20260502020527 | 39 | 5 | 5.0 | 11.0 | 0.00 | 0.16 | 0.16 | 84 | 1023.0 |
| 20260502020041 | 39 | 40 | 5.0 | 11.0 | 0.00 | 0.16 | 0.16 | 84 | 1022.9 |
| 20260502015524 | 39 | 49 | 1.0 | 6.0 | 0.00 | 0.16 | 0.16 | 85 | 1023.0 |
| 20260502015028 | 39 | 46 | 2.0 | 8.0 | 0.00 | 0.16 | 0.16 | 84 | 1022.9 |
| 20260502014539 | 39 | 82 | 3.0 | 10.0 | 0.00 | 0.16 | 0.16 | 84 | 1022.9 |
| 20260502014025 | 39 | 22 | 6.0 | 14.0 | 0.00 | 0.16 | 0.16 | 84 | 1022.8 |
| 20260502013523 | 39 | 56 | 5.0 | 14.0 | 0.00 | 0.16 | 0.16 | 84 | 1022.6 |
| 20260502013037 | 39 | 5 | 5.0 | 10.0 | 0.00 | 0.16 | 0.16 | 84 | 1022.5 |
| 20260502012523 | 39 | 39 | 5.0 | 11.0 | 0.00 | 0.16 | 0.16 | 84 | 1022.7 |
| 20260502012026 | 39 | 36 | 5.0 | 14.0 | 0.00 | 0.16 | 0.16 | 85 | 1022.7 |
| 20260502011536 | 39 | 42 | 5.0 | 14.0 | 0.00 | 0.16 | 0.16 | 84 | 1022.6 |
| 20260502011025 | 39 | 360 | 7.0 | 15.0 | 0.00 | 0.16 | 0.16 | 84 | 1022.5 |
| 20260502010523 | 39 | 42 | 6.0 | 15.0 | 0.00 | 0.16 | 0.16 | 84 | 1022.6 |
| 20260502010040 | 40 | 61 | 6.0 | 13.0 | 0.00 | 0.16 | 0.16 | 84 | 1022.5 |
| 20260502005529 | 40 | 54 | 4.0 | 13.0 | 0.00 | 0.16 | 0.16 | 84 | 1022.3 |
| 20260502005025 | 40 | 19 | 5.0 | 16.0 | 0.01 | 0.16 | 0.16 | 83 | 1022.2 |
| 20260502004538 | 41 | 336 | 8.0 | 20.0 | 0.01 | 0.16 | 0.16 | 81 | 1021.8 |
| 20260502004025 | 41 | 31 | 7.0 | 20.0 | 0.01 | 0.16 | 0.16 | 81 | 1021.6 |
| 20260502003522 | 41 | 349 | 7.0 | 16.0 | 0.01 | 0.16 | 0.16 | 82 | 1021.4 |
| 20260502003037 | 41 | 349 | 8.0 | 16.0 | 0.02 | 0.16 | 0.16 | 84 | 1021.5 |
| 20260502002525 | 41 | 34 | 7.0 | 13.0 | 0.02 | 0.16 | 0.16 | 84 | 1021.6 |
| 20260502002026 | 41 | 49 | 6.0 | 12.0 | 0.03 | 0.16 | 0.16 | 85 | 1021.6 |
| 20260502001537 | 41 | 18 | 3.0 | 11.0 | 0.03 | 0.16 | 0.16 | 86 | 1021.6 |
| 20260502001024 | 41 | 351 | 5.0 | 11.0 | 0.03 | 0.16 | 0.16 | 85 | 1021.5 |
| 20260502000524 | 41 | 348 | 3.0 | 11.0 | 0.03 | 0.16 | 0.16 | 86 | 1021.6 |
| 20260502000101 | 41 | 360 | 5.0 | 13.0 | 0.03 | 0.16 | 0.16 | 86 | 1021.5 |
| 20260501235525 | 41 | 80 | 6.0 | 13.0 | 0.03 | 0.16 | 0.16 | 85 | 1021.5 |
| 20260501235028 | 41 | 350 | 5.0 | 14.0 | 0.02 | 0.15 | 0.15 | 85 | 1021.6 |
| 20260501234540 | 41 | 333 | 7.0 | 14.0 | 0.02 | 0.15 | 0.15 | 84 | 1021.6 |
| 20260501234024 | 41 | 324 | 4.0 | 9.0 | 0.02 | 0.15 | 0.15 | 84 | 1021.8 |
| 20260501233524 | 41 | 330 | 4.0 | 9.0 | 0.02 | 0.15 | 0.15 | 82 | 1022.1 |
| 20260501233038 | 42 | 351 | 1.0 | 8.0 | 0.01 | 0.14 | 0.14 | 81 | 1022.2 |
| 20260501232525 | 42 | 16 | 3.0 | 8.0 | 0.01 | 0.14 | 0.14 | 79 | 1022.3 |
| 20260501232023 | 42 | 9 | 2.0 | 5.0 | 0.00 | 0.13 | 0.13 | 79 | 1022.2 |
| 20260501231540 | 43 | 340 | 1.0 | 6.0 | 0.00 | 0.13 | 0.13 | 79 | 1022.0 |
| 20260501231024 | 43 | 332 | 1.0 | 9.0 | 0.00 | 0.13 | 0.13 | 78 | 1021.6 |
| 20260501230529 | 43 | 5 | 3.0 | 9.0 | 0.00 | 0.13 | 0.13 | 77 | 1021.4 |
| 20260501230039 | 44 | 250 | 5.0 | 12.0 | 0.00 | 0.13 | 0.13 | 73 | 1021.3 |
| 20260501225524 | 44 | 267 | 5.0 | 12.0 | 0.00 | 0.13 | 0.13 | 71 | 1021.1 |
| 20260501225025 | 45 | 268 | 6.0 | 12.0 | 0.00 | 0.13 | 0.13 | 67 | 1021.1 |
| 20260501224558 | 45 | 20 | 4.0 | 12.0 | 0.00 | 0.13 | 0.13 | 66 | 1021.1 |
| 20260501224024 | 46 | 360 | 7.0 | 13.0 | 0.00 | 0.13 | 0.13 | 65 | 1021.0 |
| 20260501223525 | 46 | 40 | 6.0 | 13.0 | 0.00 | 0.13 | 0.13 | 63 | 1020.9 |
| 20260501223041 | 47 | 39 | 5.0 | 13.0 | 0.00 | 0.13 | 0.13 | 62 | 1020.7 |
| 20260501222527 | 47 | 360 | 6.0 | 13.0 | 0.00 | 0.13 | 0.13 | 61 | 1020.7 |
| 20260501222025 | 47 | 5 | 6.0 | 13.0 | 0.00 | 0.13 | 0.13 | 59 | 1020.7 |
| 20260501221539 | 48 | 5 | 7.0 | 15.0 | 0.00 | 0.13 | 0.13 | 59 | 1020.7 |
| 20260501221025 | 49 | 350 | 7.0 | 16.0 | 0.00 | 0.13 | 0.13 | 58 | 1020.7 |
| 20260501220522 | 49 | 15 | 8.0 | 16.0 | 0.00 | 0.13 | 0.13 | 56 | 1020.6 |
| 20260501220044 | 50 | 9 | 7.0 | 16.0 | 0.00 | 0.13 | 0.13 | 56 | 1020.5 |
| 20260501215524 | 50 | 340 | 8.0 | 16.0 | 0.00 | 0.13 | 0.13 | 56 | 1020.6 |
| 20260501215024 | 50 | 10 | 7.0 | 15.0 | 0.00 | 0.13 | 0.13 | 58 | 1020.6 |
| 20260501214538 | 49 | 331 | 7.0 | 16.0 | 0.00 | 0.13 | 0.13 | 59 | 1020.8 |
| 20260501214024 | 49 | 49 | 8.0 | 16.0 | 0.00 | 0.13 | 0.13 | 61 | 1020.9 |
| 20260501213523 | 48 | 53 | 8.0 | 14.0 | 0.00 | 0.13 | 0.13 | 60 | 1020.9 |
| 20260501213042 | 48 | 19 | 8.0 | 15.0 | 0.00 | 0.13 | 0.13 | 61 | 1020.7 |
| 20260501212524 | 48 | 54 | 9.0 | 17.0 | 0.00 | 0.13 | 0.13 | 59 | 1020.9 |
| 20260501212028 | 48 | 38 | 7.0 | 17.0 | 0.00 | 0.13 | 0.13 | 60 | 1020.8 |
| 20260501211535 | 49 | 19 | 8.0 | 17.0 | 0.00 | 0.13 | 0.13 | 59 | 1020.7 |
| 20260501211023 | 49 | 5 | 5.0 | 18.0 | 0.00 | 0.13 | 0.13 | 59 | 1020.6 |
| 20260501210523 | 50 | 24 | 9.0 | 18.0 | 0.00 | 0.13 | 0.13 | 56 | 1020.5 |
| 20260501210041 | 52 | 67 | 10.0 | 17.0 | 0.00 | 0.13 | 0.13 | 55 | 1020.5 |
| 20260501205529 | 52 | 74 | 6.0 | 21.0 | 0.00 | 0.13 | 0.13 | 57 | 1020.4 |
| 20260501205025 | 52 | 350 | 11.0 | 21.0 | 0.00 | 0.13 | 0.13 | 54 | 1020.4 |
| 20260501204539 | 52 | 63 | 7.0 | 20.0 | 0.00 | 0.13 | 0.13 | 56 | 1020.4 |
| 20260501204024 | 53 | 36 | 10.0 | 25.0 | 0.00 | 0.13 | 0.13 | 53 | 1020.4 |
| 20260501203524 | 54 | 55 | 9.0 | 25.0 | 0.00 | 0.13 | 0.13 | 51 | 1020.3 |
| 20260501203038 | 54 | 53 | 9.0 | 23.0 | 0.00 | 0.13 | 0.13 | 53 | 1020.3 |
| 20260501202523 | 54 | 5 | 12.0 | 20.0 | 0.00 | 0.13 | 0.13 | 51 | 1020.2 |
| 20260501202024 | 55 | 51 | 8.0 | 20.0 | 0.00 | 0.13 | 0.13 | 52 | 1020.2 |
| 20260501201537 | 55 | 360 | 10.0 | 26.0 | 0.00 | 0.13 | 0.13 | 53 | 1020.3 |
| 20260501201029 | 55 | 57 | 9.0 | 26.0 | 0.00 | 0.13 | 0.13 | 52 | 1020.3 |
| 20260501200523 | 55 | 68 | 11.0 | 19.0 | 0.00 | 0.13 | 0.13 | 51 | 1020.2 |
| 20260501200043 | 54 | 99 | 10.0 | 19.0 | 0.00 | 0.13 | 0.13 | 54 | 1020.3 |
| 20260501195524 | 53 | 67 | 7.0 | 17.0 | 0.00 | 0.13 | 0.13 | 55 | 1020.3 |
| 20260501195026 | 53 | 63 | 8.0 | 17.0 | 0.00 | 0.13 | 0.13 | 58 | 1020.3 |